KNEW/NEW METAR and TAF weather

Enter ICAO airport designator
Station Type Date Time Source
KNEW METAR 2019/12/16 05:53 UTC NOAA

KNEW 160553Z AUTO 16009KT 10SM CLR 19/17 A2998 RMK AO2 SLP143 T01890167 10200 20167 402500128 58008


Station Type Date Time Source
KNEW Decoded METAR 2019/12/16 05:53 UTC NOAA

NEW ORLEANS LAKEFRONT AIRPORT , LA, United States (KNEW) 30-03N 90-02W 3M
Dec 16, 2019 - 12:53 AM EST / 2019.12.16 0553 UTC
Wind: from the SSE (160 degrees) at 10 MPH (9 KT):0
Visibility: 10 mile(s):0
Sky conditions: clear
Temperature: 66.0 F (18.9 C)
Dew Point: 62.1 F (16.7 C)
Relative Humidity: 87%
Pressure (altimeter): 29.98 in. Hg (1015 hPa)
Pressure tendency: 0.02 inches (0.8 hPa) lower than three hours ago
ob: KNEW 160553Z AUTO 16009KT 10SM CLR 19/17 A2998 RMK AO2 SLP143 T01890167 10200 20167 402500128 58008
cycle: 6

Station Type Date Time Source
KNEW TAF 2019/12/16 06:42 UTC NOAA

TAF KNEW 160541Z 1606/1706 15007KT P6SM SCT020 SCT250
FM160800 17005KT 5SM BR SCT020 BKN040
FM161400 17009KT P6SM SCT020 BKN040
TEMPO 1702/1705 P6SM -TSRA BKN050CB

Example: see airport list